sensor_id;sensor_type;location;lat;lon;timestamp;noise_LAeq;noise_LA_min;noise_LA_max;noise_LA01;noise_LA95
78074;Laerm;67283;50.960;13.856;2023-07-13T00:00:57;29.40;27.92;30.62;;
78074;Laerm;67283;50.960;13.856;2023-07-13T00:03:26;29.39;28.06;30.91;;
78074;Laerm;67283;50.960;13.856;2023-07-13T00:06:00;29.37;27.86;30.53;;
78074;Laerm;67283;50.960;13.856;2023-07-13T00:08:30;29.40;27.88;31.72;;
78074;Laerm;67283;50.960;13.856;2023-07-13T00:10:58;29.67;28.33;34.54;;
78074;Laerm;67283;50.960;13.856;2023-07-13T00:13:29;29.39;27.97;30.86;;
78074;Laerm;67283;50.960;13.856;2023-07-13T00:15:57;29.53;28.21;31.66;;
78074;Laerm;67283;50.960;13.856;2023-07-13T00:18:26;29.82;28.19;33.39;;
78074;Laerm;67283;50.960;13.856;2023-07-13T00:20:55;37.70;29.06;56.38;;
78074;Laerm;67283;50.960;13.856;2023-07-13T00:23:30;37.70;29.06;56.38;;
78074;Laerm;67283;50.960;13.856;2023-07-13T00:25:59;53.68;37.74;74.43;;
78074;Laerm;67283;50.960;13.856;2023-07-13T00:28:29;53.68;37.74;74.43;;
78074;Laerm;67283;50.960;13.856;2023-07-13T00:30:57;51.97;37.36;62.02;;
78074;Laerm;67283;50.960;13.856;2023-07-13T00:33:26;48.36;43.66;60.04;;
78074;Laerm;67283;50.960;13.856;2023-07-13T00:35:54;44.58;39.39;54.72;;
78074;Laerm;67283;50.960;13.856;2023-07-13T00:38:23;39.53;35.27;57.12;;
78074;Laerm;67283;50.960;13.856;2023-07-13T00:40:51;38.46;35.01;57.74;;
78074;Laerm;67283;50.960;13.856;2023-07-13T00:43:21;49.80;37.15;60.12;;
78074;Laerm;67283;50.960;13.856;2023-07-13T00:48:35;55.47;41.98;66.19;;
78074;Laerm;67283;50.960;13.856;2023-07-13T00:51:04;43.93;39.78;54.95;;
78074;Laerm;67283;50.960;13.856;2023-07-13T00:53:32;46.29;41.98;63.95;;
78074;Laerm;67283;50.960;13.856;2023-07-13T00:56:00;47.29;43.27;67.22;;
78074;Laerm;67283;50.960;13.856;2023-07-13T00:58:29;47.68;42.97;62.59;;
78074;Laerm;67283;50.960;13.856;2023-07-13T01:00:57;47.92;43.47;56.89;;
78074;Laerm;67283;50.960;13.856;2023-07-13T01:03:25;44.51;40.33;54.15;;
78074;Laerm;67283;50.960;13.856;2023-07-13T01:05:56;40.44;36.58;48.11;;
78074;Laerm;67283;50.960;13.856;2023-07-13T01:08:25;38.20;34.36;58.34;;
78074;Laerm;67283;50.960;13.856;2023-07-13T01:10:54;36.01;32.30;43.42;;
78074;Laerm;67283;50.960;13.856;2023-07-13T01:13:23;35.24;31.72;60.14;;
78074;Laerm;67283;50.960;13.856;2023-07-13T01:15:51;55.39;31.26;72.21;;
78074;Laerm;67283;50.960;13.856;2023-07-13T01:18:20;33.04;30.80;40.50;;
78074;Laerm;67283;50.960;13.856;2023-07-13T01:20:55;33.38;30.47;60.31;;
78074;Laerm;67283;50.960;13.856;2023-07-13T01:23:25;33.18;30.10;61.33;;
78074;Laerm;67283;50.960;13.856;2023-07-13T01:25:54;37.38;29.92;71.35;;
78074;Laerm;67283;50.960;13.856;2023-07-13T01:28:22;31.61;29.55;39.61;;
78074;Laerm;67283;50.960;13.856;2023-07-13T01:30:52;31.48;29.56;42.94;;
78074;Laerm;67283;50.960;13.856;2023-07-13T01:33:20;53.67;29.49;73.00;;
78074;Laerm;67283;50.960;13.856;2023-07-13T01:35:48;31.13;28.97;48.54;;
78074;Laerm;67283;50.960;13.856;2023-07-13T01:38:20;53.34;29.21;70.60;;
78074;Laerm;67283;50.960;13.856;2023-07-13T01:40:49;30.92;29.22;38.15;;
78074;Laerm;67283;50.960;13.856;2023-07-13T01:43:17;31.52;29.16;42.99;;
78074;Laerm;67283;50.960;13.856;2023-07-13T01:45:46;49.68;28.93;67.45;;
78074;Laerm;67283;50.960;13.856;2023-07-13T01:48:14;31.24;29.24;40.19;;
78074;Laerm;67283;50.960;13.856;2023-07-13T01:50:42;49.11;29.05;66.24;;
78074;Laerm;67283;50.960;13.856;2023-07-13T01:53:10;35.49;28.62;50.28;;
78074;Laerm;67283;50.960;13.856;2023-07-13T01:55:41;39.51;29.15;56.17;;
78074;Laerm;67283;50.960;13.856;2023-07-13T01:58:09;47.67;28.95;64.54;;
78074;Laerm;67283;50.960;13.856;2023-07-13T02:00:38;49.02;28.87;67.05;;
78074;Laerm;67283;50.960;13.856;2023-07-13T02:03:06;30.51;29.00;36.80;;
78074;Laerm;67283;50.960;13.856;2023-07-13T02:05:34;30.58;28.69;36.79;;
78074;Laerm;67283;50.960;13.856;2023-07-13T02:08:02;31.39;29.00;45.42;;
78074;Laerm;67283;50.960;13.856;2023-07-13T02:10:30;33.26;29.26;61.19;;
78074;Laerm;67283;50.960;13.856;2023-07-13T02:13:01;33.26;29.26;61.19;;
78074;Laerm;67283;50.960;13.856;2023-07-13T02:15:29;33.26;29.26;61.19;;
78074;Laerm;67283;50.960;13.856;2023-07-13T02:17:57;33.26;29.26;61.19;;
78074;Laerm;67283;50.960;13.856;2023-07-13T02:20:25;52.10;29.00;75.09;;
78074;Laerm;67283;50.960;13.856;2023-07-13T02:22:54;53.39;30.18;71.99;;
78074;Laerm;67283;50.960;13.856;2023-07-13T02:25:22;53.39;30.18;71.99;;
78074;Laerm;67283;50.960;13.856;2023-07-13T02:27:50;57.25;30.32;78.90;;
78074;Laerm;67283;50.960;13.856;2023-07-13T02:30:21;46.76;29.89;67.95;;
78074;Laerm;67283;50.960;13.856;2023-07-13T02:32:49;49.55;29.42;69.10;;
78074;Laerm;67283;50.960;13.856;2023-07-13T02:35:17;39.19;29.73;54.90;;
78074;Laerm;67283;50.960;13.856;2023-07-13T02:37:46;50.16;30.63;68.23;;
78074;Laerm;67283;50.960;13.856;2023-07-13T02:40:14;55.96;29.83;71.74;;
78074;Laerm;67283;50.960;13.856;2023-07-13T02:42:42;33.50;29.54;47.36;;
78074;Laerm;67283;50.960;13.856;2023-07-13T02:45:10;33.90;29.64;44.40;;
78074;Laerm;67283;50.960;13.856;2023-07-13T02:47:41;52.19;29.53;70.58;;
78074;Laerm;67283;50.960;13.856;2023-07-13T02:50:09;55.24;30.23;70.79;;
78074;Laerm;67283;50.960;13.856;2023-07-13T02:52:37;50.92;30.23;66.85;;
78074;Laerm;67283;50.960;13.856;2023-07-13T02:55:06;55.19;29.82;72.46;;
78074;Laerm;67283;50.960;13.856;2023-07-13T02:57:34;45.38;29.94;65.62;;
78074;Laerm;67283;50.960;13.856;2023-07-13T03:00:02;53.78;29.64;71.56;;
78074;Laerm;67283;50.960;13.856;2023-07-13T03:02:32;51.49;29.95;68.49;;
78074;Laerm;67283;50.960;13.856;2023-07-13T03:05:04;57.80;30.90;74.54;;
78074;Laerm;67283;50.960;13.856;2023-07-13T03:07:32;59.80;31.53;72.59;;
78074;Laerm;67283;50.960;13.856;2023-07-13T03:10:01;55.79;30.40;70.74;;
78074;Laerm;67283;50.960;13.856;2023-07-13T03:12:29;56.96;30.32;75.12;;
78074;Laerm;67283;50.960;13.856;2023-07-13T03:14:58;51.47;29.12;68.02;;
78074;Laerm;67283;50.960;13.856;2023-07-13T03:17:26;55.62;29.41;70.86;;
78074;Laerm;67283;50.960;13.856;2023-07-13T03:19:54;50.95;29.49;71.23;;
78074;Laerm;67283;50.960;13.856;2023-07-13T03:22:25;58.77;30.36;73.47;;
78074;Laerm;67283;50.960;13.856;2023-07-13T03:24:54;58.82;31.09;70.75;;
78074;Laerm;67283;50.960;13.856;2023-07-13T03:27:22;59.46;30.08;72.78;;
78074;Laerm;67283;50.960;13.856;2023-07-13T03:29:50;58.68;30.25;72.18;;
78074;Laerm;67283;50.960;13.856;2023-07-13T03:32:18;61.43;31.63;75.98;;
78074;Laerm;67283;50.960;13.856;2023-07-13T03:34:46;59.77;32.77;74.65;;
78074;Laerm;67283;50.960;13.856;2023-07-13T03:37:15;60.15;31.03;73.61;;
78074;Laerm;67283;50.960;13.856;2023-07-13T03:39:46;59.11;40.13;73.18;;
78074;Laerm;67283;50.960;13.856;2023-07-13T03:42:14;59.96;33.70;72.73;;
78074;Laerm;67283;50.960;13.856;2023-07-13T03:44:42;55.58;30.33;71.60;;
78074;Laerm;67283;50.960;13.856;2023-07-13T03:47:17;55.58;30.33;71.60;;
78074;Laerm;67283;50.960;13.856;2023-07-13T03:49:45;60.44;33.11;79.27;;
78074;Laerm;67283;50.960;13.856;2023-07-13T03:52:13;60.83;32.95;72.98;;
78074;Laerm;67283;50.960;13.856;2023-07-13T03:54:41;60.83;32.95;72.98;;
78074;Laerm;67283;50.960;13.856;2023-07-13T03:57:12;57.94;30.60;72.64;;
78074;Laerm;67283;50.960;13.856;2023-07-13T03:59:40;61.21;33.48;74.60;;
78074;Laerm;67283;50.960;13.856;2023-07-13T04:02:08;55.25;30.90;71.38;;
78074;Laerm;67283;50.960;13.856;2023-07-13T04:04:36;62.91;40.12;76.52;;
78074;Laerm;67283;50.960;13.856;2023-07-13T04:07:05;61.36;33.32;77.19;;
78074;Laerm;67283;50.960;13.856;2023-07-13T04:09:33;61.25;31.07;77.11;;
78074;Laerm;67283;50.960;13.856;2023-07-13T04:12:02;55.65;31.31;70.71;;
78074;Laerm;67283;50.960;13.856;2023-07-13T04:14:32;58.08;30.35;74.52;;
78074;Laerm;67283;50.960;13.856;2023-07-13T04:17:01;60.69;30.64;72.19;;
78074;Laerm;67283;50.960;13.856;2023-07-13T04:19:29;60.69;30.64;72.19;;
78074;Laerm;67283;50.960;13.856;2023-07-13T04:21:57;62.64;34.97;78.95;;
78074;Laerm;67283;50.960;13.856;2023-07-13T04:24:25;62.64;34.97;78.95;;
78074;Laerm;67283;50.960;13.856;2023-07-13T04:26:53;62.09;40.58;72.57;;
78074;Laerm;67283;50.960;13.856;2023-07-13T04:29:24;60.48;38.93;71.46;;
78074;Laerm;67283;50.960;13.856;2023-07-13T04:31:55;62.99;31.81;79.88;;
78074;Laerm;67283;50.960;13.856;2023-07-13T04:34:23;62.51;37.19;75.89;;
78074;Laerm;67283;50.960;13.856;2023-07-13T04:36:51;61.54;32.04;74.27;;
78074;Laerm;67283;50.960;13.856;2023-07-13T04:39:20;60.24;35.26;73.34;;
78074;Laerm;67283;50.960;13.856;2023-07-13T04:41:48;54.16;30.29;69.56;;
78074;Laerm;67283;50.960;13.856;2023-07-13T04:44:16;60.79;34.27;78.26;;
78074;Laerm;67283;50.960;13.856;2023-07-13T04:46:44;60.86;31.87;72.86;;
78074;Laerm;67283;50.960;13.856;2023-07-13T04:49:15;58.77;31.20;72.20;;
78074;Laerm;67283;50.960;13.856;2023-07-13T04:51:43;62.04;30.80;76.97;;
78074;Laerm;67283;50.960;13.856;2023-07-13T04:54:11;62.04;30.80;76.97;;
78074;Laerm;67283;50.960;13.856;2023-07-13T04:56:39;62.01;36.39;78.01;;
78074;Laerm;67283;50.960;13.856;2023-07-13T04:59:07;58.04;33.27;69.58;;
78074;Laerm;67283;50.960;13.856;2023-07-13T05:01:35;63.45;31.64;75.14;;
78074;Laerm;67283;50.960;13.856;2023-07-13T05:04:04;60.17;31.30;73.69;;
78074;Laerm;67283;50.960;13.856;2023-07-13T05:06:34;58.96;34.80;74.68;;
78074;Laerm;67283;50.960;13.856;2023-07-13T05:09:03;58.39;31.12;74.73;;
78074;Laerm;67283;50.960;13.856;2023-07-13T05:11:32;58.40;31.06;71.62;;
78074;Laerm;67283;50.960;13.856;2023-07-13T05:14:00;61.32;30.30;75.12;;
78074;Laerm;67283;50.960;13.856;2023-07-13T05:16:29;62.42;38.69;73.50;;
78074;Laerm;67283;50.960;13.856;2023-07-13T05:18:57;62.42;38.69;73.50;;
78074;Laerm;67283;50.960;13.856;2023-07-13T05:21:25;57.06;29.96;74.18;;
78074;Laerm;67283;50.960;13.856;2023-07-13T05:23:56;60.20;31.07;73.61;;
78074;Laerm;67283;50.960;13.856;2023-07-13T05:26:24;60.80;34.19;72.15;;
78074;Laerm;67283;50.960;13.856;2023-07-13T05:28:52;59.56;34.15;72.12;;
78074;Laerm;67283;50.960;13.856;2023-07-13T05:31:20;57.74;32.52;72.29;;
78074;Laerm;67283;50.960;13.856;2023-07-13T05:33:48;61.98;34.39;74.50;;
78074;Laerm;67283;50.960;13.856;2023-07-13T05:36:16;62.96;33.96;77.49;;
78074;Laerm;67283;50.960;13.856;2023-07-13T05:38:44;63.31;37.98;76.09;;
78074;Laerm;67283;50.960;13.856;2023-07-13T05:41:15;61.68;40.32;76.31;;
78074;Laerm;67283;50.960;13.856;2023-07-13T05:43:43;57.08;31.39;73.12;;
78074;Laerm;67283;50.960;13.856;2023-07-13T05:46:11;63.55;32.64;78.05;;
78074;Laerm;67283;50.960;13.856;2023-07-13T05:48:40;58.25;31.48;73.07;;
78074;Laerm;67283;50.960;13.856;2023-07-13T05:51:08;60.24;30.55;71.75;;
78074;Laerm;67283;50.960;13.856;2023-07-13T05:53:36;59.87;31.78;73.59;;
78074;Laerm;67283;50.960;13.856;2023-07-13T05:56:04;59.44;33.10;72.91;;
78074;Laerm;67283;50.960;13.856;2023-07-13T05:58:35;61.31;32.88;76.16;;
78074;Laerm;67283;50.960;13.856;2023-07-13T06:01:03;59.25;31.80;72.53;;
78074;Laerm;67283;50.960;13.856;2023-07-13T06:03:32;62.88;30.96;79.62;;
78074;Laerm;67283;50.960;13.856;2023-07-13T06:06:00;63.77;32.94;80.68;;
78074;Laerm;67283;50.960;13.856;2023-07-13T06:08:29;63.77;32.94;80.68;;
78074;Laerm;67283;50.960;13.856;2023-07-13T06:11:01;60.25;31.64;73.17;;
78074;Laerm;67283;50.960;13.856;2023-07-13T06:13:29;56.06;29.87;73.41;;
78074;Laerm;67283;50.960;13.856;2023-07-13T06:16:01;55.74;30.05;72.71;;
78074;Laerm;67283;50.960;13.856;2023-07-13T06:18:29;57.93;30.11;72.66;;
78074;Laerm;67283;50.960;13.856;2023-07-13T06:20:57;63.31;31.12;80.52;;
78074;Laerm;67283;50.960;13.856;2023-07-13T06:23:25;62.60;35.03;76.31;;
78074;Laerm;67283;50.960;13.856;2023-07-13T06:25:53;57.67;29.85;71.89;;
78074;Laerm;67283;50.960;13.856;2023-07-13T06:28:21;58.18;30.69;77.27;;
78074;Laerm;67283;50.960;13.856;2023-07-13T06:30:49;57.85;31.67;71.66;;
78074;Laerm;67283;50.960;13.856;2023-07-13T06:33:20;58.11;34.08;77.98;;
78074;Laerm;67283;50.960;13.856;2023-07-13T06:35:48;55.29;31.14;72.97;;
78074;Laerm;67283;50.960;13.856;2023-07-13T06:38:16;57.99;31.44;73.04;;
78074;Laerm;67283;50.960;13.856;2023-07-13T06:40:44;58.40;32.38;72.01;;
78074;Laerm;67283;50.960;13.856;2023-07-13T06:43:12;62.27;31.19;76.97;;
78074;Laerm;67283;50.960;13.856;2023-07-13T06:45:41;63.25;32.44;81.37;;
78074;Laerm;67283;50.960;13.856;2023-07-13T06:48:10;56.72;31.32;69.34;;
78074;Laerm;67283;50.960;13.856;2023-07-13T06:50:41;55.74;31.09;68.41;;
78074;Laerm;67283;50.960;13.856;2023-07-13T06:53:09;60.50;31.61;72.76;;
78074;Laerm;67283;50.960;13.856;2023-07-13T06:55:38;61.96;31.85;78.59;;
78074;Laerm;67283;50.960;13.856;2023-07-13T06:58:06;61.53;38.60;80.66;;
78074;Laerm;67283;50.960;13.856;2023-07-13T07:00:34;57.73;29.70;71.78;;
78074;Laerm;67283;50.960;13.856;2023-07-13T07:03:05;57.73;29.70;71.78;;
78074;Laerm;67283;50.960;13.856;2023-07-13T07:05:33;61.40;30.40;75.21;;
78074;Laerm;67283;50.960;13.856;2023-07-13T07:08:04;56.42;31.22;70.01;;
78074;Laerm;67283;50.960;13.856;2023-07-13T07:10:32;61.31;31.78;88.30;;
78074;Laerm;67283;50.960;13.856;2023-07-13T07:13:01;60.84;30.34;76.11;;
78074;Laerm;67283;50.960;13.856;2023-07-13T07:15:29;59.36;31.24;74.73;;
78074;Laerm;67283;50.960;13.856;2023-07-13T07:17:58;63.00;30.28;77.77;;
78074;Laerm;67283;50.960;13.856;2023-07-13T07:20:26;57.47;31.14;70.69;;
78074;Laerm;67283;50.960;13.856;2023-07-13T07:22:55;59.48;31.04;73.06;;
78074;Laerm;67283;50.960;13.856;2023-07-13T07:25:26;62.73;32.77;79.71;;
78074;Laerm;67283;50.960;13.856;2023-07-13T07:27:56;63.50;31.11;93.60;;
78074;Laerm;67283;50.960;13.856;2023-07-13T07:30:25;59.93;32.44;76.03;;
78074;Laerm;67283;50.960;13.856;2023-07-13T07:32:53;62.88;30.87;79.97;;
78074;Laerm;67283;50.960;13.856;2023-07-13T07:35:21;61.62;31.63;76.67;;
78074;Laerm;67283;50.960;13.856;2023-07-13T07:37:49;52.51;32.51;67.99;;
78074;Laerm;67283;50.960;13.856;2023-07-13T07:40:17;61.32;30.69;78.98;;
78074;Laerm;67283;50.960;13.856;2023-07-13T07:42:48;54.71;31.52;70.05;;
78074;Laerm;67283;50.960;13.856;2023-07-13T07:45:16;57.70;30.11;71.76;;
78074;Laerm;67283;50.960;13.856;2023-07-13T07:47:44;60.16;30.38;74.87;;
78074;Laerm;67283;50.960;13.856;2023-07-13T07:50:12;57.28;30.39;70.28;;
78074;Laerm;67283;50.960;13.856;2023-07-13T07:52:40;60.50;30.55;75.46;;
78074;Laerm;67283;50.960;13.856;2023-07-13T07:55:09;55.27;29.96;69.44;;
78074;Laerm;67283;50.960;13.856;2023-07-13T07:57:37;50.77;30.21;67.84;;
78074;Laerm;67283;50.960;13.856;2023-07-13T08:00:09;57.00;31.55;72.74;;
78074;Laerm;67283;50.960;13.856;2023-07-13T08:02:37;57.42;33.44;71.30;;
78074;Laerm;67283;50.960;13.856;2023-07-13T08:05:06;64.02;30.54;81.21;;
78074;Laerm;67283;50.960;13.856;2023-07-13T08:07:34;64.02;30.54;81.21;;
78074;Laerm;67283;50.960;13.856;2023-07-13T08:10:03;61.55;36.45;78.63;;
78074;Laerm;67283;50.960;13.856;2023-07-13T08:12:33;57.69;32.05;71.32;;
78074;Laerm;67283;50.960;13.856;2023-07-13T08:15:01;60.59;32.67;77.57;;
78074;Laerm;67283;50.960;13.856;2023-07-13T08:17:32;58.74;33.31;74.88;;
78074;Laerm;67283;50.960;13.856;2023-07-13T08:20:00;62.17;31.95;78.77;;
78074;Laerm;67283;50.960;13.856;2023-07-13T08:22:29;54.74;31.81;72.37;;
78074;Laerm;67283;50.960;13.856;2023-07-13T08:24:57;55.66;31.01;73.96;;
78074;Laerm;67283;50.960;13.856;2023-07-13T08:27:25;57.27;31.24;69.55;;
78074;Laerm;67283;50.960;13.856;2023-07-13T08:29:54;59.02;32.39;73.47;;
78074;Laerm;67283;50.960;13.856;2023-07-13T08:32:22;57.71;32.81;68.92;;
78074;Laerm;67283;50.960;13.856;2023-07-13T08:34:53;58.04;32.64;73.81;;
78074;Laerm;67283;50.960;13.856;2023-07-13T08:37:21;54.08;31.81;69.92;;
78074;Laerm;67283;50.960;13.856;2023-07-13T08:39:49;62.87;39.52;78.59;;
78074;Laerm;67283;50.960;13.856;2023-07-13T08:42:22;61.30;36.83;76.34;;
78074;Laerm;67283;50.960;13.856;2023-07-13T08:44:56;59.78;34.43;75.98;;
78074;Laerm;67283;50.960;13.856;2023-07-13T08:47:28;55.29;31.20;69.90;;
78074;Laerm;67283;50.960;13.856;2023-07-13T08:50:01;60.26;37.36;74.84;;
78074;Laerm;67283;50.960;13.856;2023-07-13T08:52:30;59.49;38.81;75.90;;
78074;Laerm;67283;50.960;13.856;2023-07-13T08:55:02;59.69;39.49;78.67;;
78074;Laerm;67283;50.960;13.856;2023-07-13T08:57:33;61.49;37.75;77.31;;
78074;Laerm;67283;50.960;13.856;2023-07-13T09:00:02;61.40;41.80;74.41;;
78074;Laerm;67283;50.960;13.856;2023-07-13T09:02:35;59.61;35.72;71.95;;
78074;Laerm;67283;50.960;13.856;2023-07-13T09:05:12;58.61;36.44;72.20;;
78074;Laerm;67283;50.960;13.856;2023-07-13T09:07:47;60.48;36.65;72.80;;
78074;Laerm;67283;50.960;13.856;2023-07-13T09:10:20;56.80;35.90;68.43;;
78074;Laerm;67283;50.960;13.856;2023-07-13T09:12:54;56.80;35.90;68.43;;
78074;Laerm;67283;50.960;13.856;2023-07-13T09:15:26;61.89;36.69;80.51;;
78074;Laerm;67283;50.960;13.856;2023-07-13T09:17:57;62.23;40.63;74.83;;
78074;Laerm;67283;50.960;13.856;2023-07-13T09:20:30;62.01;35.91;76.17;;
78074;Laerm;67283;50.960;13.856;2023-07-13T09:23:01;61.02;32.29;78.25;;
78074;Laerm;67283;50.960;13.856;2023-07-13T09:25:30;61.02;32.29;78.25;;
78074;Laerm;67283;50.960;13.856;2023-07-13T09:27:59;62.53;31.70;85.27;;
78074;Laerm;67283;50.960;13.856;2023-07-13T09:30:33;58.00;30.92;69.67;;
78074;Laerm;67283;50.960;13.856;2023-07-13T09:33:04;58.00;30.92;69.67;;
78074;Laerm;67283;50.960;13.856;2023-07-13T09:35:35;58.48;32.01;74.02;;
78074;Laerm;67283;50.960;13.856;2023-07-13T09:38:10;58.48;32.01;74.02;;
78074;Laerm;67283;50.960;13.856;2023-07-13T09:40:40;59.72;30.41;78.48;;
78074;Laerm;67283;50.960;13.856;2023-07-13T09:43:13;57.46;30.19;72.11;;
78074;Laerm;67283;50.960;13.856;2023-07-13T09:45:41;58.33;30.59;70.96;;
78074;Laerm;67283;50.960;13.856;2023-07-13T09:48:14;55.55;30.78;70.02;;
78074;Laerm;67283;50.960;13.856;2023-07-13T09:50:45;58.48;33.00;69.81;;
78074;Laerm;67283;50.960;13.856;2023-07-13T09:53:13;56.30;30.51;70.90;;
78074;Laerm;67283;50.960;13.856;2023-07-13T09:55:43;59.30;32.41;76.03;;
78074;Laerm;67283;50.960;13.856;2023-07-13T09:58:11;60.21;30.55;76.22;;
78074;Laerm;67283;50.960;13.856;2023-07-13T10:00:40;57.78;31.25;73.15;;
78074;Laerm;67283;50.960;13.856;2023-07-13T10:03:16;58.14;29.49;73.87;;
78074;Laerm;67283;50.960;13.856;2023-07-13T10:05:50;59.12;31.20;71.19;;
78074;Laerm;67283;50.960;13.856;2023-07-13T10:08:21;58.69;30.92;73.62;;
78074;Laerm;67283;50.960;13.856;2023-07-13T10:10:53;57.88;33.59;71.35;;
78074;Laerm;67283;50.960;13.856;2023-07-13T10:13:26;56.45;30.15;70.68;;
78074;Laerm;67283;50.960;13.856;2023-07-13T10:15:55;56.86;31.65;73.70;;
78074;Laerm;67283;50.960;13.856;2023-07-13T10:18:25;58.82;30.95;75.79;;
78074;Laerm;67283;50.960;13.856;2023-07-13T10:20:58;55.21;30.42;70.87;;
78074;Laerm;67283;50.960;13.856;2023-07-13T10:23:28;59.21;31.49;71.76;;
78074;Laerm;67283;50.960;13.856;2023-07-13T10:25:58;62.05;32.15;78.95;;
78074;Laerm;67283;50.960;13.856;2023-07-13T10:28:28;57.82;30.74;71.40;;
78074;Laerm;67283;50.960;13.856;2023-07-13T10:30:58;65.60;34.01;79.02;;
78074;Laerm;67283;50.960;13.856;2023-07-13T10:33:28;60.24;39.27;71.63;;
78074;Laerm;67283;50.960;13.856;2023-07-13T10:36:00;58.03;31.25;71.53;;
78074;Laerm;67283;50.960;13.856;2023-07-13T10:38:30;62.79;30.42;81.17;;
78074;Laerm;67283;50.960;13.856;2023-07-13T10:41:00;63.15;33.09;79.20;;
78074;Laerm;67283;50.960;13.856;2023-07-13T10:43:32;61.39;31.39;76.85;;
78074;Laerm;67283;50.960;13.856;2023-07-13T10:46:02;53.43;31.17;68.59;;
78074;Laerm;67283;50.960;13.856;2023-07-13T10:48:31;53.65;30.09;65.87;;
78074;Laerm;67283;50.960;13.856;2023-07-13T10:51:05;58.54;31.27;73.47;;
78074;Laerm;67283;50.960;13.856;2023-07-13T10:53:35;59.61;30.97;75.88;;
78074;Laerm;67283;50.960;13.856;2023-07-13T10:56:05;55.16;30.66;71.86;;
78074;Laerm;67283;50.960;13.856;2023-07-13T10:58:36;59.92;32.74;71.50;;
78074;Laerm;67283;50.960;13.856;2023-07-13T11:01:08;61.45;33.81;78.02;;
78074;Laerm;67283;50.960;13.856;2023-07-13T11:03:38;58.95;31.56;73.26;;
78074;Laerm;67283;50.960;13.856;2023-07-13T11:06:18;58.07;31.64;72.71;;
78074;Laerm;67283;50.960;13.856;2023-07-13T11:08:58;57.22;33.83;70.52;;
78074;Laerm;67283;50.960;13.856;2023-07-13T11:11:32;60.17;31.89;74.93;;
78074;Laerm;67283;50.960;13.856;2023-07-13T11:14:01;59.52;34.31;71.75;;
78074;Laerm;67283;50.960;13.856;2023-07-13T11:16:34;55.57;31.44;67.59;;
78074;Laerm;67283;50.960;13.856;2023-07-13T11:22:10;59.53;32.68;75.97;;
78074;Laerm;67283;50.960;13.856;2023-07-13T11:24:48;60.98;32.57;76.91;;
78074;Laerm;67283;50.960;13.856;2023-07-13T11:27:27;57.50;31.08;72.79;;
78074;Laerm;67283;50.960;13.856;2023-07-13T11:30:07;57.40;30.90;78.91;;
78074;Laerm;67283;50.960;13.856;2023-07-13T11:32:36;57.40;30.90;78.91;;
78074;Laerm;67283;50.960;13.856;2023-07-13T11:35:04;62.47;31.29;77.90;;
78074;Laerm;67283;50.960;13.856;2023-07-13T11:37:35;58.15;33.29;72.09;;
78074;Laerm;67283;50.960;13.856;2023-07-13T11:40:05;57.05;32.59;75.24;;
78074;Laerm;67283;50.960;13.856;2023-07-13T11:42:33;56.07;32.63;71.99;;
78074;Laerm;67283;50.960;13.856;2023-07-13T11:45:01;53.30;31.13;85.17;;
78074;Laerm;67283;50.960;13.856;2023-07-13T11:47:31;62.25;36.19;80.65;;
78074;Laerm;67283;50.960;13.856;2023-07-13T11:49:59;61.18;29.99;81.36;;
78074;Laerm;67283;50.960;13.856;2023-07-13T11:52:29;61.18;29.99;81.36;;
78074;Laerm;67283;50.960;13.856;2023-07-13T11:55:03;62.52;34.59;79.19;;
78074;Laerm;67283;50.960;13.856;2023-07-13T11:57:32;55.29;32.83;70.37;;
78074;Laerm;67283;50.960;13.856;2023-07-13T12:00:02;55.87;32.14;70.03;;
78074;Laerm;67283;50.960;13.856;2023-07-13T12:02:32;58.22;31.76;72.28;;
78074;Laerm;67283;50.960;13.856;2023-07-13T12:05:01;58.22;30.03;72.67;;
78074;Laerm;67283;50.960;13.856;2023-07-13T12:07:31;59.67;33.92;74.54;;
78074;Laerm;67283;50.960;13.856;2023-07-13T12:10:03;61.26;33.75;78.02;;
78074;Laerm;67283;50.960;13.856;2023-07-13T12:12:40;59.66;31.93;74.34;;
78074;Laerm;67283;50.960;13.856;2023-07-13T12:15:13;56.78;31.26;71.98;;
78074;Laerm;67283;50.960;13.856;2023-07-13T12:17:41;59.46;31.99;70.75;;
78074;Laerm;67283;50.960;13.856;2023-07-13T12:20:17;64.36;31.78;80.46;;
78074;Laerm;67283;50.960;13.856;2023-07-13T12:22:48;60.54;31.69;77.51;;
78074;Laerm;67283;50.960;13.856;2023-07-13T12:25:19;60.65;31.52;77.23;;
78074;Laerm;67283;50.960;13.856;2023-07-13T12:27:48;61.50;31.44;76.73;;
78074;Laerm;67283;50.960;13.856;2023-07-13T12:30:22;58.49;33.28;71.32;;
78074;Laerm;67283;50.960;13.856;2023-07-13T12:32:55;57.84;31.22;71.15;;
78074;Laerm;67283;50.960;13.856;2023-07-13T12:35:24;61.74;32.46;84.24;;
78074;Laerm;67283;50.960;13.856;2023-07-13T12:37:54;58.24;30.24;72.48;;
78074;Laerm;67283;50.960;13.856;2023-07-13T12:40:28;57.84;32.59;73.88;;
78074;Laerm;67283;50.960;13.856;2023-07-13T12:42:59;55.32;32.51;68.79;;
78074;Laerm;67283;50.960;13.856;2023-07-13T12:45:29;58.45;31.27;70.86;;
78074;Laerm;67283;50.960;13.856;2023-07-13T12:47:58;63.12;34.81;77.08;;
78074;Laerm;67283;50.960;13.856;2023-07-13T12:50:33;60.50;32.89;74.44;;
78074;Laerm;67283;50.960;13.856;2023-07-13T12:53:02;60.50;32.89;74.44;;
78074;Laerm;67283;50.960;13.856;2023-07-13T12:55:39;60.14;31.18;73.59;;
78074;Laerm;67283;50.960;13.856;2023-07-13T12:58:09;55.92;33.06;70.25;;
78074;Laerm;67283;50.960;13.856;2023-07-13T13:00:41;60.59;33.17;72.87;;
78074;Laerm;67283;50.960;13.856;2023-07-13T13:03:20;56.93;30.66;70.58;;
78074;Laerm;67283;50.960;13.856;2023-07-13T13:05:49;56.93;30.66;70.58;;
78074;Laerm;67283;50.960;13.856;2023-07-13T13:08:24;61.04;32.01;73.37;;
78074;Laerm;67283;50.960;13.856;2023-07-13T13:10:55;58.59;33.53;73.11;;
78074;Laerm;67283;50.960;13.856;2023-07-13T13:13:23;60.15;33.41;77.08;;
78074;Laerm;67283;50.960;13.856;2023-07-13T13:15:52;61.60;31.52;76.78;;
78074;Laerm;67283;50.960;13.856;2023-07-13T13:18:23;56.06;31.43;71.09;;
78074;Laerm;67283;50.960;13.856;2023-07-13T13:20:51;59.95;38.38;70.67;;
78074;Laerm;67283;50.960;13.856;2023-07-13T13:23:19;60.06;35.99;70.22;;
78074;Laerm;67283;50.960;13.856;2023-07-13T13:25:49;60.06;35.99;70.22;;
78074;Laerm;67283;50.960;13.856;2023-07-13T13:28:21;59.63;33.39;73.78;;
78074;Laerm;67283;50.960;13.856;2023-07-13T13:30:49;61.84;38.87;74.82;;
78074;Laerm;67283;50.960;13.856;2023-07-13T13:33:19;58.78;34.48;72.60;;
78074;Laerm;67283;50.960;13.856;2023-07-13T13:35:48;57.66;32.32;70.00;;
78074;Laerm;67283;50.960;13.856;2023-07-13T13:38:17;62.07;32.15;80.06;;
78074;Laerm;67283;50.960;13.856;2023-07-13T13:40:47;58.18;31.45;70.68;;
78074;Laerm;67283;50.960;13.856;2023-07-13T13:43:15;59.88;31.75;70.42;;
78074;Laerm;67283;50.960;13.856;2023-07-13T13:45:46;59.85;34.34;75.42;;
78074;Laerm;67283;50.960;13.856;2023-07-13T13:48:15;60.38;39.69;71.37;;
78074;Laerm;67283;50.960;13.856;2023-07-13T13:50:45;62.14;36.34;77.31;;